Time;durP1;ratioP1;P1;durP2;ratioP2;P2;SDS_P1;SDS_P2;PMS_P1;PMS_P2;Temp;Humidity;BMP_temperature;BMP_pressure;BME280_temperature;BME280_humidity;BME280_pressure;Samples;Min_cycle;Max_cycle;Signal;HPM_P1;HPM_P2
2023/07/03 00:01:44;;;;;;;10.93;3.35;;;18.60;95.80;;;;;;5045264;28;20361;-42
2023/07/03 00:04:10;;;;;;;9.07;3.00;;;18.60;95.80;;;;;;5046494;28;20056;-42
2023/07/03 00:06:37;;;;;;;7.03;2.75;;;18.50;95.70;;;;;;5046177;28;20053;-42
2023/07/03 00:09:05;;;;;;;8.55;2.90;;;18.50;95.80;;;;;;5041023;28;20047;-41
2023/07/03 00:11:32;;;;;;;9.68;3.28;;;18.50;95.80;;;;;;5045328;28;20515;-42
2023/07/03 00:13:58;;;;;;;8.82;3.10;;;18.50;95.80;;;;;;5045312;28;20036;-43
2023/07/03 00:16:24;;;;;;;8.55;3.08;;;18.50;95.90;;;;;;5044253;28;20489;-42
2023/07/03 00:18:49;;;;;;;9.90;3.20;;;18.50;96.00;;;;;;5042824;28;20013;-41
2023/07/03 00:21:15;;;;;;;8.00;3.13;;;18.40;96.00;;;;;;5045315;28;20119;-41
2023/07/03 00:23:40;;;;;;;12.55;3.28;;;18.40;96.00;;;;;;5045450;28;20136;-41
2023/07/03 00:26:06;;;;;;;8.75;2.83;;;18.40;96.00;;;;;;5044938;28;20489;-42
2023/07/03 00:28:31;;;;;;;8.60;3.38;;;18.40;96.00;;;;;;5045971;28;20021;-41
2023/07/03 00:30:57;;;;;;;6.30;2.70;;;18.40;96.10;;;;;;5045610;28;20025;-42
2023/07/03 00:33:23;;;;;;;7.82;3.13;;;18.40;96.00;;;;;;5046254;28;20981;-42
2023/07/03 00:35:48;;;;;;;6.03;2.72;;;18.40;96.10;;;;;;5046207;28;20037;-42
2023/07/03 00:38:14;;;;;;;10.07;3.20;;;18.30;96.10;;;;;;5045980;28;20123;-41
2023/07/03 00:40:39;;;;;;;6.10;2.67;;;18.40;96.10;;;;;;5045840;28;20029;-42
2023/07/03 00:43:05;;;;;;;9.73;3.20;;;18.40;96.20;;;;;;5045732;28;20048;-41
2023/07/03 00:45:32;;;;;;;6.72;2.70;;;18.30;96.20;;;;;;5045500;28;20025;-41
2023/07/03 00:47:58;;;;;;;7.15;2.78;;;18.30;96.20;;;;;;5045710;28;20024;-41
2023/07/03 00:50:24;;;;;;;8.65;2.72;;;18.30;96.20;;;;;;5046338;28;20029;-41
2023/07/03 00:52:58;;;;;;;14.02;3.65;;;18.20;96.20;;;;;;5044660;28;20342;-41
2023/07/03 00:55:24;;;;;;;8.70;2.92;;;18.20;96.20;;;;;;5046331;28;20078;-42
2023/07/03 00:57:51;;;;;;;8.23;2.85;;;18.20;96.20;;;;;;5044164;28;20032;-41
2023/07/03 01:00:17;;;;;;;9.68;3.40;;;18.20;96.40;;;;;;5045408;28;20029;-42
2023/07/03 01:02:58;;;;;;;8.15;2.67;;;18.20;96.20;;;;;;5044372;28;20119;-41
2023/07/03 01:05:33;;;;;;;13.13;3.03;;;18.10;96.20;;;;;;5043848;28;20053;-41
2023/07/03 01:08:10;;;;;;;11.35;3.38;;;18.10;96.10;;;;;;5045547;28;20075;-42
2023/07/03 01:10:36;;;;;;;7.63;2.90;;;18.10;96.10;;;;;;5045160;28;20032;-41
2023/07/03 01:13:06;;;;;;;9.15;3.00;;;18.10;96.20;;;;;;5045137;28;20100;-41
2023/07/03 01:15:36;;;;;;;9.15;3.85;;;18.10;96.20;;;;;;5044754;28;20040;-41
2023/07/03 01:18:05;;;;;;;9.02;3.38;;;18.10;96.20;;;;;;5043866;28;20485;-41
2023/07/03 01:20:37;;;;;;;13.13;3.67;;;18.10;96.20;;;;;;5033795;28;20048;-42
2023/07/03 01:23:11;;;;;;;7.43;2.92;;;18.00;96.20;;;;;;5045401;28;20070;-42
2023/07/03 01:25:42;;;;;;;11.35;3.50;;;17.90;96.20;;;;;;5041563;28;20033;-42
2023/07/03 01:28:12;;;;;;;8.75;2.88;;;17.90;96.20;;;;;;5044698;28;20103;-42
2023/07/03 01:30:41;;;;;;;9.88;2.97;;;17.90;96.30;;;;;;5045473;28;20476;-43
2023/07/03 01:33:09;;;;;;;10.23;2.83;;;17.90;96.30;;;;;;5045126;28;20025;-43
2023/07/03 01:35:36;;;;;;;8.70;3.03;;;17.90;96.40;;;;;;5042314;28;20048;-42
2023/07/03 01:38:03;;;;;;;12.73;3.25;;;17.80;96.50;;;;;;5045316;28;20488;-44
2023/07/03 01:40:29;;;;;;;7.10;2.90;;;17.80;96.60;;;;;;5044846;28;20086;-43
2023/07/03 01:42:59;;;;;;;10.60;3.67;;;17.80;96.60;;;;;;5045847;28;20025;-42
2023/07/03 01:45:26;;;;;;;10.93;3.30;;;17.70;96.60;;;;;;5044258;28;20461;-42
2023/07/03 01:47:52;;;;;;;8.20;2.90;;;17.70;96.70;;;;;;5044379;28;20033;-42
2023/07/03 01:50:26;;;;;;;14.18;3.40;;;17.60;96.70;;;;;;5043190;28;20036;-42
2023/07/03 01:53:00;;;;;;;8.88;3.08;;;17.60;96.80;;;;;;5045201;28;20061;-42
2023/07/03 01:55:54;;;;;;;8.55;2.70;;;17.50;96.90;;;;;;5043758;28;20039;-42
2023/07/03 01:58:42;;;;;;;9.82;3.00;;;17.50;97.00;;;;;;5032620;28;20142;-42
2023/07/03 02:01:16;;;;;;;7.78;3.08;;;17.50;97.00;;;;;;5043477;28;20059;-43
2023/07/03 02:03:49;;;;;;;7.50;2.95;;;17.40;97.00;;;;;;5043966;28;20041;-43
2023/07/03 02:06:23;;;;;;;8.38;2.92;;;17.50;97.10;;;;;;5044194;28;20374;-47
2023/07/03 02:08:51;;;;;;;8.18;2.95;;;17.50;97.20;;;;;;5044594;28;20617;-43
2023/07/03 02:11:20;;;;;;;12.15;3.45;;;17.40;97.20;;;;;;5044204;28;20389;-42
2023/07/03 02:13:45;;;;;;;11.27;3.70;;;17.50;97.40;;;;;;5045417;28;20029;-42
2023/07/03 02:16:11;;;;;;;10.15;3.63;;;17.40;97.60;;;;;;5043493;28;20039;-42
2023/07/03 02:18:37;;;;;;;10.48;3.10;;;17.40;97.70;;;;;;5045274;28;20020;-42
2023/07/03 02:21:07;;;;;;;14.57;3.97;;;17.40;97.80;;;;;;5044962;28;20108;-42
2023/07/03 02:23:33;;;;;;;8.43;3.10;;;17.40;97.90;;;;;;5043244;28;20641;-43
2023/07/03 02:25:59;;;;;;;9.10;2.97;;;17.40;97.90;;;;;;5044834;28;20017;-42
2023/07/03 02:28:25;;;;;;;9.20;2.95;;;17.40;98.00;;;;;;5044756;28;20029;-42
2023/07/03 02:30:51;;;;;;;10.65;3.30;;;17.40;98.00;;;;;;5043661;28;20017;-42
2023/07/03 02:36:09;;;;;;;12.27;2.97;;;17.30;98.00;;;;;;5037519;28;20044;-42
2023/07/03 02:38:34;;;;;;;9.45;3.20;;;17.30;98.00;;;;;;5042670;28;20033;-42
2023/07/03 02:41:01;;;;;;;9.02;2.70;;;17.30;98.10;;;;;;5043119;28;20044;-42
2023/07/03 02:43:27;;;;;;;8.13;3.20;;;17.40;98.10;;;;;;5043052;28;20054;-41
2023/07/03 02:45:52;;;;;;;10.52;3.50;;;17.40;98.10;;;;;;5044331;28;20591;-41
2023/07/03 02:48:19;;;;;;;11.50;3.28;;;17.40;98.30;;;;;;5037690;28;20029;-41
2023/07/03 02:50:44;;;;;;;12.13;3.00;;;17.40;98.30;;;;;;5041053;28;20459;-42
2023/07/03 02:53:10;;;;;;;14.00;4.00;;;17.30;98.40;;;;;;5042323;28;20029;-42
2023/07/03 02:55:35;;;;;;;14.20;3.72;;;17.30;98.50;;;;;;5043229;28;20473;-41
2023/07/03 02:58:01;;;;;;;9.88;3.75;;;17.30;98.60;;;;;;5041080;28;20319;-43
2023/07/03 03:00:28;;;;;;;10.38;3.42;;;17.30;98.70;;;;;;5042148;28;20032;-42
2023/07/03 03:02:56;;;;;;;9.75;3.42;;;17.30;98.80;;;;;;5042290;28;20040;-42
2023/07/03 03:05:22;;;;;;;11.98;3.17;;;17.30;98.90;;;;;;5040814;28;20046;-42
2023/07/03 03:07:47;;;;;;;12.98;3.60;;;17.30;98.90;;;;;;5042048;28;20028;-42
2023/07/03 03:10:13;;;;;;;11.68;3.35;;;17.40;99.00;;;;;;5042315;28;20025;-41
2023/07/03 03:12:38;;;;;;;9.15;3.15;;;17.40;99.10;;;;;;5042271;28;20054;-42
2023/07/03 03:15:06;;;;;;;12.35;3.33;;;17.30;99.10;;;;;;5047851;28;20017;-42
2023/07/03 03:17:31;;;;;;;11.38;3.00;;;17.40;99.20;;;;;;5048073;28;20044;-42
2023/07/03 03:19:57;;;;;;;10.95;3.63;;;17.40;99.30;;;;;;5046253;28;20086;-42
2023/07/03 03:22:23;;;;;;;12.88;4.05;;;17.40;99.50;;;;;;5047993;28;20056;-42
2023/07/03 03:24:51;;;;;;;14.48;3.85;;;17.40;99.50;;;;;;5047158;28;20032;-42
2023/07/03 03:27:17;;;;;;;16.08;3.85;;;17.40;99.70;;;;;;5046714;28;20112;-42
2023/07/03 03:29:42;;;;;;;7.65;3.40;;;17.30;99.90;;;;;;5047710;28;20108;-43
2023/07/03 03:32:08;;;;;;;10.82;3.35;;;17.30;99.90;;;;;;5036271;28;20060;-42
2023/07/03 03:34:34;;;;;;;9.95;3.55;;;17.30;99.90;;;;;;5046653;28;20025;-42
2023/07/03 03:37:01;;;;;;;13.77;4.25;;;17.20;99.90;;;;;;5046911;28;20102;-43
2023/07/03 03:39:27;;;;;;;16.27;4.43;;;17.20;99.90;;;;;;5046442;28;20083;-43
2023/07/03 03:41:53;;;;;;;17.25;4.55;;;17.10;99.90;;;;;;5047515;28;20028;-41
2023/07/03 03:44:18;;;;;;;12.95;3.97;;;17.10;99.90;;;;;;5046458;28;20036;-43
2023/07/03 03:46:44;;;;;;;11.55;4.25;;;17.00;99.90;;;;;;5045003;28;20032;-42
2023/07/03 03:49:19;;;;;;;17.60;4.68;;;17.00;99.90;;;;;;5046094;28;20025;-42
2023/07/03 03:51:45;;;;;;;15.32;3.83;;;17.00;99.90;;;;;;5047432;28;20098;-42
2023/07/03 03:54:10;;;;;;;18.42;4.38;;;17.00;99.90;;;;;;5046420;28;20457;-42
2023/07/03 03:56:36;;;;;;;14.45;4.00;;;17.00;99.90;;;;;;5047431;28;20082;-42
2023/07/03 03:59:02;;;;;;;9.10;3.40;;;17.00;99.90;;;;;;5046891;28;20036;-42
2023/07/03 04:01:27;;;;;;;9.63;3.17;;;17.00;99.90;;;;;;5046114;28;20465;-42
2023/07/03 04:03:56;;;;;;;10.70;3.53;;;17.00;99.90;;;;;;5046718;28;20029;-42
2023/07/03 04:06:21;;;;;;;16.17;4.00;;;17.00;99.90;;;;;;5045353;28;20048;-42
2023/07/03 04:08:47;;;;;;;12.32;3.70;;;17.00;99.90;;;;;;5046187;28;20029;-41
2023/07/03 04:11:14;;;;;;;15.18;4.30;;;17.10;99.90;;;;;;5046535;28;20035;-42
2023/07/03 04:13:42;;;;;;;12.90;3.67;;;17.10;99.90;;;;;;5044927;28;20579;-42
2023/07/03 04:16:11;;;;;;;11.43;4.18;;;17.10;99.90;;;;;;5045978;28;20055;-42
2023/07/03 04:18:37;;;;;;;10.32;3.88;;;17.10;99.90;;;;;;5046770;28;20032;-42
2023/07/03 04:21:06;;;;;;;13.07;3.78;;;17.10;99.90;;;;;;5046238;28;20021;-42
2023/07/03 04:23:31;;;;;;;10.73;3.60;;;17.10;99.90;;;;;;5044397;28;20018;-42
2023/07/03 04:25:58;;;;;;;15.23;4.25;;;17.10;99.90;;;;;;5045346;28;20037;-41
2023/07/03 04:28:23;;;;;;;11.00;3.67;;;17.10;99.90;;;;;;5046589;28;20029;-42
2023/07/03 04:30:49;;;;;;;13.73;4.60;;;17.10;99.90;;;;;;5045261;28;20032;-42
2023/07/03 04:33:15;;;;;;;14.98;4.28;;;17.10;99.90;;;;;;5045998;28;20021;-43
2023/07/03 04:35:41;;;;;;;14.85;4.10;;;17.10;99.90;;;;;;5044519;28;20037;-43
2023/07/03 04:38:07;;;;;;;13.55;4.32;;;17.10;99.90;;;;;;5045263;28;20109;-42
2023/07/03 04:40:34;;;;;;;15.90;4.20;;;17.10;99.90;;;;;;5045174;28;20035;-43
2023/07/03 04:43:06;;;;;;;12.18;4.03;;;17.10;99.90;;;;;;5045304;28;21155;-43
2023/07/03 04:45:37;;;;;;;11.57;4.03;;;17.10;99.90;;;;;;5045940;28;20036;-43
2023/07/03 04:48:06;;;;;;;13.73;4.47;;;17.10;99.90;;;;;;5045998;28;20036;-43
2023/07/03 04:50:31;;;;;;;14.10;4.47;;;17.10;99.90;;;;;;5044900;28;20743;-43
2023/07/03 04:52:57;;;;;;;13.80;3.75;;;17.10;99.90;;;;;;5045160;28;20024;-42
2023/07/03 04:55:23;;;;;;;12.23;4.07;;;17.10;99.90;;;;;;5044900;28;20036;-43
2023/07/03 04:57:48;;;;;;;9.82;3.78;;;17.10;99.90;;;;;;5045329;28;20033;-42
2023/07/03 05:00:16;;;;;;;15.15;4.28;;;17.10;99.90;;;;;;5044085;28;20467;-43
2023/07/03 05:02:51;;;;;;;15.45;5.13;;;17.00;99.90;;;;;;5044824;28;20033;-42
2023/07/03 05:05:18;;;;;;;9.23;3.38;;;17.00;99.90;;;;;;5042589;28;20094;-43
2023/07/03 05:07:45;;;;;;;14.75;4.30;;;17.00;99.90;;;;;;5045142;28;20025;-42
2023/07/03 05:10:13;;;;;;;13.02;4.25;;;17.00;99.90;;;;;;5045376;28;20032;-42
2023/07/03 05:12:39;;;;;;;20.17;4.75;;;17.10;99.90;;;;;;5044649;28;20025;-42
2023/07/03 05:15:08;;;;;;;12.75;4.38;;;17.10;99.90;;;;;;5044634;28;20044;-42
2023/07/03 05:17:35;;;;;;;14.55;4.20;;;17.10;99.90;;;;;;5045133;28;20040;-42
2023/07/03 05:20:01;;;;;;;9.90;3.40;;;17.20;99.90;;;;;;5044034;28;20471;-41
2023/07/03 05:22:27;;;;;;;12.73;4.03;;;17.20;99.90;;;;;;5045008;28;20032;-42
2023/07/03 05:24:53;;;;;;;13.48;4.00;;;17.20;99.90;;;;;;5043194;28;20044;-42
2023/07/03 05:27:18;;;;;;;16.52;4.68;;;17.20;99.90;;;;;;5043892;28;20210;-42
2023/07/03 05:29:44;;;;;;;15.15;4.43;;;17.20;99.90;;;;;;5044511;28;20032;-42
2023/07/03 05:32:10;;;;;;;14.38;3.80;;;17.20;99.90;;;;;;5042839;28;20435;-42
2023/07/03 05:34:38;;;;;;;12.38;4.00;;;17.20;99.90;;;;;;5045329;28;20041;-42
2023/07/03 05:37:05;;;;;;;10.82;4.05;;;17.30;99.90;;;;;;5043534;28;20106;-42
2023/07/03 05:39:34;;;;;;;13.40;4.15;;;17.30;99.90;;;;;;5038192;28;20350;-42
2023/07/03 05:42:00;;;;;;;10.68;4.32;;;17.40;99.90;;;;;;5044890;28;20021;-41
2023/07/03 05:44:32;;;;;;;15.50;4.45;;;17.40;99.90;;;;;;5045168;28;20051;-42
2023/07/03 05:46:57;;;;;;;14.05;5.05;;;17.40;99.90;;;;;;5043483;28;20029;-42
2023/07/03 05:49:26;;;;;;;14.77;4.22;;;17.50;99.90;;;;;;5044174;28;20025;-42
2023/07/03 05:51:58;;;;;;;10.65;3.60;;;17.50;99.90;;;;;;5044507;28;20575;-43
2023/07/03 05:54:23;;;;;;;16.00;3.90;;;17.60;99.90;;;;;;5043912;28;20975;-46
2023/07/03 05:56:59;;;;;;;16.20;4.45;;;17.60;99.90;;;;;;5044224;28;20079;-42
2023/07/03 05:59:25;;;;;;;10.75;4.18;;;17.70;99.90;;;;;;5041562;28;20535;-42
2023/07/03 06:01:54;;;;;;;12.10;4.13;;;17.70;99.90;;;;;;5044697;28;20025;-42
2023/07/03 06:04:22;;;;;;;14.32;4.03;;;17.80;99.90;;;;;;5042843;28;20086;-42
2023/07/03 06:06:49;;;;;;;17.23;4.88;;;17.90;99.90;;;;;;5045706;28;20036;-42
2023/07/03 06:09:18;;;;;;;9.60;3.47;;;18.00;99.90;;;;;;5043839;28;20827;-42
2023/07/03 06:11:45;;;;;;;13.68;4.55;;;18.00;99.90;;;;;;5044632;28;20033;-42
2023/07/03 06:14:28;;;;;;;14.75;4.13;;;18.10;99.90;;;;;;5041808;28;20516;-42
2023/07/03 06:16:54;;;;;;;14.18;4.43;;;18.20;99.90;;;;;;5024334;28;20227;-42
2023/07/03 06:19:20;;;;;;;11.90;3.95;;;18.20;99.90;;;;;;5039630;28;20483;-42
2023/07/03 06:21:47;;;;;;;15.38;3.90;;;18.30;99.90;;;;;;5043612;28;20060;-42
2023/07/03 06:24:14;;;;;;;11.77;3.58;;;18.30;99.90;;;;;;5042708;28;20194;-42
2023/07/03 06:26:43;;;;;;;10.68;3.40;;;18.30;99.90;;;;;;5044219;28;20053;-42
2023/07/03 06:29:10;;;;;;;12.75;4.07;;;18.30;99.90;;;;;;5043136;28;20021;-42
2023/07/03 06:31:36;;;;;;;17.02;4.55;;;18.30;99.90;;;;;;5041628;28;20376;-42
2023/07/03 06:34:03;;;;;;;15.68;4.60;;;18.20;99.90;;;;;;5044346;28;20021;-43
2023/07/03 06:36:31;;;;;;;17.02;4.40;;;18.10;99.90;;;;;;5038455;28;20062;-42
2023/07/03 06:38:58;;;;;;;12.73;3.38;;;18.10;99.90;;;;;;5031145;28;20021;-42
2023/07/03 06:41:28;;;;;;;12.68;3.60;;;18.10;99.90;;;;;;5043747;28;20086;-43
2023/07/03 06:43:55;;;;;;;13.27;4.43;;;18.10;99.90;;;;;;5043250;28;20052;-43
2023/07/03 06:46:20;;;;;;;13.93;4.25;;;18.10;99.90;;;;;;5043831;28;20025;-42
2023/07/03 06:48:46;;;;;;;16.00;4.20;;;18.10;99.90;;;;;;5042796;28;20029;-41
2023/07/03 06:51:13;;;;;;;14.27;4.03;;;18.10;99.90;;;;;;5046402;28;20021;-42
2023/07/03 06:53:40;;;;;;;14.60;4.32;;;18.10;99.90;;;;;;5047288;28;20025;-42
2023/07/03 06:56:09;;;;;;;11.68;3.80;;;18.10;99.90;;;;;;5047190;28;20052;-41
2023/07/03 06:58:38;;;;;;;15.10;4.13;;;18.10;99.90;;;;;;5046699;28;20444;-42
2023/07/03 07:01:09;;;;;;;14.73;4.25;;;18.10;99.90;;;;;;5047211;28;20392;-43
2023/07/03 07:03:38;;;;;;;11.40;4.63;;;18.10;99.90;;;;;;5047047;28;20443;-42
2023/07/03 07:06:19;;;;;;;15.05;4.20;;;18.10;99.90;;;;;;5046944;28;20087;-42
2023/07/03 07:08:45;;;;;;;14.82;4.28;;;18.20;99.90;;;;;;5047498;28;20048;-41
2023/07/03 07:11:22;;;;;;;14.75;4.38;;;18.30;99.90;;;;;;5046724;28;20021;-42
2023/07/03 07:13:50;;;;;;;14.65;4.22;;;18.30;99.90;;;;;;5027701;28;20033;-42
2023/07/03 07:16:23;;;;;;;14.25;4.00;;;18.30;99.90;;;;;;5042529;28;20132;-41
2023/07/03 07:18:55;;;;;;;10.13;3.70;;;18.40;99.90;;;;;;5027124;28;20650;-42
2023/07/03 07:21:25;;;;;;;12.32;4.13;;;18.50;99.90;;;;;;5042670;28;20064;-42
2023/07/03 07:24:08;;;;;;;10.50;3.42;;;18.50;99.90;;;;;;5047115;28;20033;-41
2023/07/03 07:26:36;;;;;;;11.55;3.58;;;18.60;99.90;;;;;;5045853;28;20053;-41
2023/07/03 07:29:02;;;;;;;10.68;3.88;;;18.70;99.90;;;;;;5047261;28;20090;-42
2023/07/03 07:31:29;;;;;;;8.88;3.55;;;18.70;99.90;;;;;;5046347;28;20059;-42
2023/07/03 07:33:55;;;;;;;12.43;3.90;;;18.80;99.90;;;;;;5047381;28;20029;-41
2023/07/03 07:36:23;;;;;;;13.45;3.97;;;18.80;99.90;;;;;;5046899;28;20055;-42
2023/07/03 07:38:50;;;;;;;10.18;3.90;;;18.90;99.90;;;;;;5046319;28;20025;-42
2023/07/03 07:41:19;;;;;;;15.23;4.15;;;18.90;99.90;;;;;;5046413;28;20021;-42
2023/07/03 07:43:50;;;;;;;15.20;3.95;;;18.90;99.90;;;;;;5046576;28;20033;-42
2023/07/03 07:46:16;;;;;;;12.55;4.25;;;18.90;99.90;;;;;;5035456;28;20032;-43
2023/07/03 07:48:42;;;;;;;11.52;3.78;;;18.90;99.90;;;;;;5046592;28;20032;-43
2023/07/03 07:51:09;;;;;;;13.82;4.03;;;18.90;99.90;;;;;;5046516;28;20455;-43
2023/07/03 07:53:38;;;;;;;10.93;3.60;;;18.90;99.90;;;;;;5044973;28;20037;-43
2023/07/03 07:56:07;;;;;;;10.25;3.90;;;19.00;99.90;;;;;;5045837;28;20029;-43
2023/07/03 07:58:32;;;;;;;11.93;3.35;;;19.20;99.90;;;;;;5046837;28;20120;-43
2023/07/03 08:00:58;;;;;;;9.32;3.22;;;19.40;99.90;;;;;;5044185;28;20112;-43
2023/07/03 08:03:27;;;;;;;11.95;3.88;;;19.60;99.90;;;;;;5046238;28;20032;-42
2023/07/03 08:06:04;;;;;;;9.35;3.15;;;19.80;99.90;;;;;;5046512;28;20055;-42
2023/07/03 08:08:31;;;;;;;10.27;3.15;;;19.80;99.90;;;;;;5044754;28;20036;-42
2023/07/03 08:10:59;;;;;;;14.25;3.90;;;19.80;99.90;;;;;;5046466;28;20033;-41
2023/07/03 08:13:29;;;;;;;11.82;3.25;;;19.90;99.90;;;;;;5045878;28;20726;-42
2023/07/03 08:15:57;;;;;;;13.10;3.95;;;19.80;99.90;;;;;;5045223;28;20033;-42
2023/07/03 08:18:24;;;;;;;10.63;3.47;;;19.90;99.90;;;;;;5045627;28;20823;-42
2023/07/03 08:20:50;;;;;;;10.30;3.17;;;19.90;99.90;;;;;;5045133;28;20656;-42
2023/07/03 08:23:16;;;;;;;10.75;2.65;;;20.00;99.90;;;;;;5045809;28;20127;-42
2023/07/03 08:25:42;;;;;;;6.78;2.28;;;20.10;99.90;;;;;;5046197;28;20124;-41
2023/07/03 08:28:14;;;;;;;7.13;2.85;;;20.20;99.90;;;;;;5044574;28;20035;-42
2023/07/03 08:30:40;;;;;;;;;;;20.30;99.90;;;;;;5045681;28;20108;-42
2023/07/03 08:33:08;;;;;;;9.38;3.28;;;20.30;99.90;;;;;;5044884;28;20066;-42
2023/07/03 08:35:34;;;;;;;9.63;2.92;;;20.20;99.90;;;;;;5044762;28;20072;-42
2023/07/03 08:38:00;;;;;;;8.18;3.40;;;20.20;99.90;;;;;;5046588;28;20214;-42
2023/07/03 08:40:26;;;;;;;10.00;3.10;;;20.30;99.90;;;;;;5045766;28;20108;-43
2023/07/03 08:43:16;;;;;;;6.53;2.72;;;20.40;99.90;;;;;;5044181;28;20166;-42
2023/07/03 08:45:45;;;;;;;8.93;2.88;;;20.40;99.90;;;;;;5034998;28;20032;-42
2023/07/03 08:48:17;;;;;;;6.63;3.08;;;20.50;99.90;;;;;;5046030;28;20436;-42
2023/07/03 08:50:47;;;;;;;7.10;2.63;;;20.50;99.90;;;;;;5044790;28;20465;-43
2023/07/03 08:53:18;;;;;;;10.02;3.20;;;20.50;99.90;;;;;;5044006;28;20021;-42
2023/07/03 08:55:51;;;;;;;7.55;2.67;;;20.40;99.30;;;;;;5041538;28;20035;-43
2023/07/03 08:58:17;;;;;;;8.43;2.17;;;20.30;99.20;;;;;;5044677;28;20079;-42
2023/07/03 09:00:57;;;;;;;6.22;2.50;;;20.10;99.20;;;;;;5045452;28;20458;-42
2023/07/03 09:03:38;;;;;;;5.50;2.22;;;19.90;99.20;;;;;;5045095;28;20103;-42
2023/07/03 09:06:19;;;;;;;8.37;2.53;;;19.80;99.20;;;;;;5033885;28;20057;-42
2023/07/03 09:08:59;;;;;;;8.15;2.55;;;19.70;99.10;;;;;;5043926;28;20079;-42
2023/07/03 09:11:28;;;;;;;7.55;2.40;;;19.60;99.00;;;;;;5041659;28;20129;-42
2023/07/03 09:13:58;;;;;;;9.68;3.05;;;19.70;99.20;;;;;;5044075;28;20087;-41
2023/07/03 09:16:24;;;;;;;8.10;2.40;;;19.80;99.10;;;;;;5033795;28;20510;-42
2023/07/03 09:18:57;;;;;;;8.73;3.30;;;19.90;98.80;;;;;;5042404;28;20922;-41
2023/07/03 09:21:25;;;;;;;9.30;2.92;;;20.10;98.70;;;;;;5040546;28;20036;-41
2023/07/03 09:24:17;;;;;;;9.75;2.63;;;20.20;98.60;;;;;;5026961;28;20068;-44
2023/07/03 09:27:23;;;;;;;11.48;3.72;;;20.30;98.30;;;;;;5037886;28;20056;-40
2023/07/03 09:29:49;;;;;;;10.88;2.63;;;20.40;98.30;;;;;;5042915;28;20053;-42
2023/07/03 09:32:27;;;;;;;8.07;2.50;;;20.30;98.00;;;;;;5055848;28;20028;-43
2023/07/03 09:35:10;;;;;;;7.78;2.53;;;20.20;98.00;;;;;;5052414;28;20477;-42
2023/07/03 09:37:41;;;;;;;8.23;3.63;;;20.00;98.10;;;;;;5045500;28;20045;-42
2023/07/03 09:40:13;;;;;;;9.07;2.63;;;19.80;98.30;;;;;;5057028;28;20071;-43
2023/07/03 09:42:41;;;;;;;7.82;2.67;;;19.60;98.60;;;;;;5052200;28;20036;-43
2023/07/03 09:45:18;;;;;;;8.90;2.60;;;19.50;98.90;;;;;;5033790;28;20025;-43
2023/07/03 09:47:55;;;;;;;10.65;3.42;;;19.40;99.20;;;;;;5044442;28;20032;-42
2023/07/03 09:50:26;;;;;;;7.93;2.65;;;19.40;99.40;;;;;;5043995;28;20036;-42
2023/07/03 09:52:55;;;;;;;7.32;2.28;;;19.50;99.20;;;;;;5043498;28;20033;-43
2023/07/03 09:55:21;;;;;;;5.68;2.42;;;19.70;98.50;;;;;;5043987;28;20021;-43
2023/07/03 09:57:48;;;;;;;6.82;2.30;;;19.80;98.00;;;;;;5043631;28;20048;-41
2023/07/03 10:00:22;;;;;;;7.30;2.70;;;19.90;98.20;;;;;;5043421;28;20100;-42
2023/07/03 10:02:56;;;;;;;10.05;3.03;;;20.10;98.20;;;;;;5044236;28;20025;-42
2023/07/03 10:05:31;;;;;;;7.38;2.80;;;20.10;97.90;;;;;;5044059;28;20077;-41
2023/07/03 10:08:02;;;;;;;6.90;2.20;;;20.20;97.90;;;;;;5041120;28;20052;-42
2023/07/03 10:10:30;;;;;;;8.13;2.40;;;20.20;97.90;;;;;;5040801;28;20033;-42
2023/07/03 10:13:16;;;;;;;8.48;2.28;;;20.10;98.10;;;;;;5043916;28;20021;-42
2023/07/03 10:15:42;;;;;;;6.97;2.38;;;20.00;98.90;;;;;;5043836;28;20032;-43
2023/07/03 10:18:31;;;;;;;8.55;2.63;;;19.70;99.30;;;;;;5044424;28;20504;-42
2023/07/03 10:21:01;;;;;;;8.35;2.55;;;19.50;99.50;;;;;;5043371;28;20036;-41
2023/07/03 10:23:30;;;;;;;7.90;2.08;;;19.40;99.50;;;;;;5044292;28;20071;-42
2023/07/03 10:26:04;;;;;;;7.40;2.33;;;19.30;99.50;;;;;;5047776;28;20098;-41
2023/07/03 10:28:34;;;;;;;6.90;2.22;;;19.20;99.20;;;;;;5045172;28;20025;-42
2023/07/03 10:31:08;;;;;;;4.10;1.70;;;19.20;98.90;;;;;;5048011;28;20029;-42
2023/07/03 10:33:41;;;;;;;6.18;2.05;;;19.30;98.80;;;;;;5044494;28;20021;-42
2023/07/03 10:36:16;;;;;;;5.28;1.77;;;19.50;98.20;;;;;;5047807;28;20025;-41
2023/07/03 10:38:46;;;;;;;6.78;2.08;;;19.60;98.00;;;;;;5047509;28;20480;-42
2023/07/03 10:41:21;;;;;;;7.90;2.10;;;19.70;97.40;;;;;;5047803;28;20029;-42
2023/07/03 10:43:54;;;;;;;6.80;2.45;;;19.80;97.40;;;;;;5039788;28;20018;-42
2023/07/03 10:46:51;;;;;;;5.40;2.05;;;19.80;97.00;;;;;;5032014;28;20017;-42
2023/07/03 10:49:33;;;;;;;6.07;1.88;;;19.80;96.60;;;;;;5037982;28;20037;-42
2023/07/03 10:52:18;;;;;;;5.82;2.25;;;19.70;96.60;;;;;;5040103;28;20025;-43
2023/07/03 10:55:11;;;;;;;9.63;2.30;;;19.60;96.50;;;;;;5036628;28;20758;-43
2023/07/03 10:57:59;;;;;;;7.90;1.95;;;19.50;96.50;;;;;;5046488;28;20044;-42
2023/07/03 11:01:04;;;;;;;7.80;2.28;;;19.50;96.70;;;;;;5047073;28;20029;-42
2023/07/03 11:04:00;;;;;;;5.20;1.85;;;19.50;96.50;;;;;;5047101;28;20028;-41
2023/07/03 11:06:40;;;;;;;6.57;1.70;;;19.50;96.60;;;;;;5027858;28;20359;-43
2023/07/03 11:09:14;;;;;;;8.02;2.42;;;19.60;96.30;;;;;;5043289;28;20025;-43
2023/07/03 11:12:09;;;;;;;7.85;2.40;;;19.70;95.90;;;;;;5047426;28;20090;-42
2023/07/03 11:14:59;;;;;;;8.00;2.30;;;19.70;95.90;;;;;;5024545;28;20808;-42
2023/07/03 11:17:48;;;;;;;7.82;2.22;;;19.70;95.60;;;;;;5045930;28;20041;-42
2023/07/03 11:20:25;;;;;;;6.97;2.20;;;19.60;95.60;;;;;;5043236;28;20029;-42
2023/07/03 11:23:03;;;;;;;6.85;2.33;;;19.60;95.60;;;;;;5045833;28;20037;-41
2023/07/03 11:25:32;;;;;;;6.97;2.03;;;19.60;95.60;;;;;;5043755;28;20029;-42
2023/07/03 11:28:29;;;;;;;6.30;2.00;;;19.60;95.70;;;;;;5047591;28;20108;-43
2023/07/03 11:30:59;;;;;;;7.00;1.92;;;19.70;95.20;;;;;;5035990;28;20033;-42
2023/07/03 11:33:26;;;;;;;4.20;1.92;;;19.80;94.80;;;;;;5056918;28;20021;-42
2023/07/03 11:35:57;;;;;;;7.43;2.10;;;19.80;94.60;;;;;;5045632;28;20360;-42
2023/07/03 11:38:23;;;;;;;6.40;1.95;;;20.00;94.50;;;;;;5046635;28;20044;-43
2023/07/03 11:40:58;;;;;;;4.90;1.60;;;20.20;94.40;;;;;;5046905;28;20067;-42
2023/07/03 11:43:32;;;;;;;4.03;1.60;;;20.40;93.90;;;;;;5046569;28;20033;-43
2023/07/03 11:45:57;;;;;;;4.00;1.60;;;20.70;93.40;;;;;;5046156;28;20074;-43
2023/07/03 11:48:31;;;;;;;7.45;1.92;;;20.80;93.10;;;;;;5046892;28;20629;-42
2023/07/03 11:51:13;;;;;;;7.70;2.15;;;20.80;93.00;;;;;;5046801;28;20170;-42
2023/07/03 11:53:46;;;;;;;6.63;1.85;;;20.90;92.70;;;;;;5046492;28;20381;-43
2023/07/03 11:56:33;;;;;;;7.03;1.88;;;21.00;92.80;;;;;;5046995;28;20031;-43
2023/07/03 11:59:22;;;;;;;4.85;1.92;;;21.00;92.50;;;;;;5046035;28;20033;-43
2023/07/03 12:01:53;;;;;;;6.63;1.92;;;21.00;92.80;;;;;;5044917;28;20108;-43
2023/07/03 12:04:44;;;;;;;6.00;2.30;;;21.00;92.90;;;;;;5046114;28;20025;-42
2023/07/03 12:07:16;;;;;;;6.82;2.00;;;21.00;93.10;;;;;;5042642;28;20053;-42
2023/07/03 12:09:42;;;;;;;;;;;20.90;93.40;;;;;;5046355;28;20044;-42
2023/07/03 12:12:26;;;;;;;9.48;2.53;;;20.90;93.30;;;;;;5046839;28;20288;-42
2023/07/03 12:15:09;;;;;;;5.57;2.10;;;20.80;93.30;;;;;;5046096;28;20021;-41
2023/07/03 12:17:36;;;;;;;;;;;20.60;93.40;;;;;;5036876;28;20049;-42
2023/07/03 12:20:20;;;;;;;6.90;2.17;;;20.50;93.60;;;;;;5045675;28;19962;-42
2023/07/03 12:22:52;;;;;;;7.80;2.63;;;20.40;93.80;;;;;;5036341;28;20112;-42
2023/07/03 12:25:19;;;;;;;4.97;1.50;;;20.40;93.70;;;;;;5045191;28;20487;-42
2023/07/03 12:27:51;;;;;;;7.15;2.60;;;20.50;93.90;;;;;;5045081;28;20033;-42
2023/07/03 12:30:24;;;;;;;;;;;20.60;93.90;;;;;;5047028;28;20102;-42
2023/07/03 12:32:52;;;;;;;8.40;2.53;;;20.80;93.40;;;;;;5045991;28;19905;-41
2023/07/03 12:35:23;;;;;;;8.18;2.70;;;20.80;92.90;;;;;;5045411;28;20044;-42
2023/07/03 12:37:52;;;;;;;6.53;1.92;;;20.90;92.90;;;;;;5046441;28;20028;-42
2023/07/03 12:40:20;;;;;;;4.18;1.65;;;20.90;92.40;;;;;;5046277;28;20063;-42
2023/07/03 12:42:54;;;;;;;6.63;1.55;;;20.90;92.00;;;;;;5045138;28;20036;-43
2023/07/03 12:45:23;;;;;;;6.43;1.73;;;21.00;90.90;;;;;;5046155;28;20432;-43
2023/07/03 12:48:04;;;;;;;3.83;1.40;;;20.90;90.30;;;;;;5044915;28;20427;-43
2023/07/03 12:50:31;;;;;;;5.88;1.80;;;20.90;90.00;;;;;;5045989;28;20358;-41
2023/07/03 12:53:00;;;;;;;6.60;1.50;;;20.90;90.20;;;;;;5046064;28;20024;-41
2023/07/03 12:55:31;;;;;;;4.15;1.48;;;21.00;90.00;;;;;;5056778;28;20787;-42
2023/07/03 12:57:58;;;;;;;8.43;1.60;;;21.10;89.00;;;;;;5047326;28;20103;-41
2023/07/03 13:00:31;;;;;;;6.00;1.20;;;21.20;87.00;;;;;;5045895;28;20427;-42
2023/07/03 13:03:06;;;;;;;;;;;21.10;85.90;;;;;;5045433;28;20354;-41